Thunder radar more information blitzortung!


Radar de pluja more information rain snow radar


Visita la nostra xarxa de llocs de meteo:

Template documentation
and downloads

And another site



Wind From: 11-12-2017 11:00 Until: 14:59 warning for: Wind Level: Yellow info button

Pagina Historial Weather Underground text

Diari Resum Juny 20, 2017 Unitats:  Tant    Imperial   Mètric
« Previous Dia
SegĂźent Dia »
Diari Setmana Mensual Anual Personalitzada
  Maxima: Minima: Media:
Temperatura: 91 °F /  32.8 °C 68.4 °F /  20.2 °C 81.5 °F /  27.5 °C
Punt de rosada: 67.8 °F /  19.9 °C 54.1 °F /  12.3 °C 59.9 °F /  15.5 °C
Humitat: 82 % 34 % 50 %
Wind Speed: 15 mph /  24.1 km/h - 5.7 mph /  9.2 km/h
RĂ fegues de vent: 15 mph /  24.1 km/h - -
Vent:- - SW
Pression baro: 30.1 in /  1017.8 hPa 29.9 in /  1013.8 hPa -
Precipitacions: 0 in /  0.0 mm    
Historical Graphs
 
 
Dades de taula per Juny 20, 2017
Temps Temperatura Punt de rosada Pression baro Vent Wind Speed RĂ fegues de vent Humitat Rainfall Rate (Hourly)
00:00 69.6 °F /  20.9 °C 63.9 °F /  17.7 °C 30 in /  1015.8 hPa SW 1 mph /  1.6 km/h 2 mph /  3.2 km/h 82 % 0 in /  0.0 mm
00:04 74.1 °F /  23.4 °C 63.7 °F /  17.6 °C 30.1 in /  1017.8 hPa SW 2.3 mph /  3.7 km/h 2.3 mph /  3.7 km/h 70 % 0 in /  0.0 mm
00:10 69.4 °F /  20.8 °C 63.7 °F /  17.6 °C 30 in /  1016.8 hPa SW 1 mph /  1.6 km/h 2 mph /  3.2 km/h 82 % 0 in /  0.0 mm
00:20 69.3 °F /  20.7 °C 63.5 °F /  17.5 °C 30 in /  1015.8 hPa WSW 1 mph /  1.6 km/h 2 mph /  3.2 km/h 82 % 0 in /  0.0 mm
00:30 69.1 °F /  20.6 °C 63.3 °F /  17.4 °C 30 in /  1015.8 hPa Calm   2 mph /  3.2 km/h 82 % 0 in /  0.0 mm
00:40 68.9 °F /  20.5 °C 63.1 °F /  17.3 °C 30 in /  1015.8 hPa WSW 1 mph /  1.6 km/h 1 mph /  1.6 km/h 82 % 0 in /  0.0 mm
00:50 68.7 °F /  20.4 °C 63 °F /  17.2 °C 30 in /  1015.8 hPa Calm   1 mph /  1.6 km/h 82 % 0 in /  0.0 mm
01:00 68.5 °F /  20.3 °C 62.4 °F /  16.9 °C 30 in /  1015.8 hPa SW 1 mph /  1.6 km/h 1 mph /  1.6 km/h 81 % 0 in /  0.0 mm
01:10 68.5 °F /  20.3 °C 62.4 °F /  16.9 °C 30 in /  1015.8 hPa SW 1 mph /  1.6 km/h 1 mph /  1.6 km/h 81 % 0 in /  0.0 mm
01:20 68.7 °F /  20.4 °C 63 °F /  17.2 °C 30 in /  1015.8 hPa SSW 1 mph /  1.6 km/h 1 mph /  1.6 km/h 82 % 0 in /  0.0 mm
01:30 68.5 °F /  20.3 °C 62.8 °F /  17.1 °C 30 in /  1015.8 hPa Calm     82 % 0 in /  0.0 mm
01:40 68.4 °F /  20.2 °C 62.2 °F /  16.8 °C 30 in /  1015.8 hPa SSE 1 mph /  1.6 km/h 1 mph /  1.6 km/h 81 % 0 in /  0.0 mm
01:50 68.4 °F /  20.2 °C 62.2 °F /  16.8 °C 30 in /  1015.8 hPa Calm   1 mph /  1.6 km/h 81 % 0 in /  0.0 mm
02:10 69.1 °F /  20.6 °C 63 °F /  17.2 °C 30 in /  1015.8 hPa NNE 1 mph /  1.6 km/h 2 mph /  3.2 km/h 81 % 0 in /  0.0 mm
02:20 69.4 °F /  20.8 °C 63.3 °F /  17.4 °C 30 in /  1015.8 hPa NE 1 mph /  1.6 km/h 1 mph /  1.6 km/h 81 % 0 in /  0.0 mm
02:30 69.6 °F /  20.9 °C 63.5 °F /  17.5 °C 30 in /  1015.8 hPa Calm     81 % 0 in /  0.0 mm
02:40 69.8 °F /  21.0 °C 63 °F /  17.2 °C 30 in /  1015.8 hPa NE 1 mph /  1.6 km/h 2 mph /  3.2 km/h 79 % 0 in /  0.0 mm
02:50 70.3 °F /  21.3 °C 63.9 °F /  17.7 °C 30 in /  1016.8 hPa Calm   2 mph /  3.2 km/h 80 % 0 in /  0.0 mm
03:00 71.2 °F /  21.8 °C 64.4 °F /  18.0 °C 30 in /  1016.8 hPa SSE 1 mph /  1.6 km/h 1 mph /  1.6 km/h 79 % 0 in /  0.0 mm
03:10 70.5 °F /  21.4 °C 63.3 °F /  17.4 °C 30 in /  1016.8 hPa SE 1 mph /  1.6 km/h 3 mph /  4.8 km/h 78 % 0 in /  0.0 mm
03:20 71.4 °F /  21.9 °C 64.2 °F /  17.9 °C 30 in /  1016.8 hPa East 2 mph /  3.2 km/h 3 mph /  4.8 km/h 78 % 0 in /  0.0 mm
03:30 72.1 °F /  22.3 °C 64.6 °F /  18.1 °C 30 in /  1016.8 hPa ENE 2 mph /  3.2 km/h 2 mph /  3.2 km/h 77 % 0 in /  0.0 mm
03:40 73 °F /  22.8 °C 64.9 °F /  18.3 °C 30 in /  1016.8 hPa East 1 mph /  1.6 km/h 2 mph /  3.2 km/h 76 % 0 in /  0.0 mm
03:50 74.5 °F /  23.6 °C 66 °F /  18.9 °C 30 in /  1016.8 hPa SSW 1 mph /  1.6 km/h 2 mph /  3.2 km/h 75 % 0 in /  0.0 mm
04:00 75.4 °F /  24.1 °C 66.6 °F /  19.2 °C 30 in /  1016.8 hPa SW 2 mph /  3.2 km/h 2 mph /  3.2 km/h 74 % 0 in /  0.0 mm
04:10 76.1 °F /  24.5 °C 67.3 °F /  19.6 °C 30 in /  1016.8 hPa SW 1 mph /  1.6 km/h 5 mph /  8.0 km/h 74 % 0 in /  0.0 mm
04:20 76.5 °F /  24.7 °C 67.6 °F /  19.8 °C 30.1 in /  1017.8 hPa SW 2 mph /  3.2 km/h 4 mph /  6.4 km/h 74 % 0 in /  0.0 mm
04:30 77.5 °F /  25.3 °C 67.8 °F /  19.9 °C 30.1 in /  1017.8 hPa SW 3 mph /  4.8 km/h 5 mph /  8.0 km/h 72 % 0 in /  0.0 mm
04:40 77.4 °F /  25.2 °C 67.6 °F /  19.8 °C 30.1 in /  1017.8 hPa SW 3 mph /  4.8 km/h 5 mph /  8.0 km/h 72 % 0 in /  0.0 mm
04:50 77.7 °F /  25.4 °C 67.6 °F /  19.8 °C 30.1 in /  1017.8 hPa SW 2 mph /  3.2 km/h 8 mph /  12.9 km/h 71 % 0 in /  0.0 mm
05:00 78.6 °F /  25.9 °C 66.7 °F /  19.3 °C 30.1 in /  1017.8 hPa SSW 7 mph /  11.3 km/h 7 mph /  11.3 km/h 67 % 0 in /  0.0 mm
05:10 79.5 °F /  26.4 °C 67.3 °F /  19.6 °C 30.1 in /  1017.8 hPa SSW 5 mph /  8.0 km/h 8 mph /  12.9 km/h 66 % 0 in /  0.0 mm
05:20 80.4 °F /  26.9 °C 67.1 °F /  19.5 °C 30.1 in /  1017.8 hPa WSW 3 mph /  4.8 km/h 6 mph /  9.7 km/h 64 % 0 in /  0.0 mm
05:30 81.9 °F /  27.7 °C 67.1 °F /  19.5 °C 30.1 in /  1017.8 hPa West 3 mph /  4.8 km/h 3 mph /  4.8 km/h 61 % 0 in /  0.0 mm
05:40 81.9 °F /  27.7 °C 65.7 °F /  18.7 °C 30.1 in /  1017.8 hPa SW 5 mph /  8.0 km/h 10 mph /  16.1 km/h 58 % 0 in /  0.0 mm
05:50 82.4 °F /  28.0 °C 65.7 °F /  18.7 °C 30.1 in /  1017.8 hPa SW 3 mph /  4.8 km/h 8 mph /  12.9 km/h 57 % 0 in /  0.0 mm
10:56 83.3 °F /  28.5 °C 65.5 °F /  18.6 °C 30.1 in /  1017.8 hPa SSE 5.4 mph /  8.7 km/h 5.6 mph /  9.0 km/h 55 % 0 in /  0.0 mm
11:01 83.5 °F /  28.6 °C 64.6 °F /  18.1 °C 30.1 in /  1017.8 hPa SW 4.6 mph /  7.4 km/h 4.6 mph /  7.4 km/h 53 % 0 in /  0.0 mm
11:06 84.4 °F /  29.1 °C 64.8 °F /  18.2 °C 30.1 in /  1017.8 hPa WSW 10.2 mph /  16.4 km/h 10.2 mph /  16.4 km/h 52 % 0 in /  0.0 mm
11:11 84.2 °F /  29.0 °C 64.8 °F /  18.2 °C 30.1 in /  1017.8 hPa SW 9.2 mph /  14.8 km/h 9.2 mph /  14.8 km/h 52 % 0 in /  0.0 mm
11:16 84 °F /  28.9 °C 63.9 °F /  17.7 °C 30.1 in /  1017.8 hPa SSE 8.1 mph /  13.0 km/h 8.1 mph /  13.0 km/h 51 % 0 in /  0.0 mm
11:21 84.2 °F /  29.0 °C 63.5 °F /  17.5 °C 30.1 in /  1017.8 hPa SW 6.9 mph /  11.1 km/h 6.9 mph /  11.1 km/h 50 % 0 in /  0.0 mm
11:26 84.4 °F /  29.1 °C 63.7 °F /  17.6 °C 30.1 in /  1017.8 hPa SW 6.9 mph /  11.1 km/h 6.9 mph /  11.1 km/h 50 % 0 in /  0.0 mm
11:31 85.1 °F /  29.5 °C 64.4 °F /  18.0 °C 30 in /  1016.8 hPa WSW 4.6 mph /  7.4 km/h 4.6 mph /  7.4 km/h 50 % 0 in /  0.0 mm
11:36 85.8 °F /  29.9 °C 64.9 °F /  18.3 °C 30 in /  1016.8 hPa SW 6.2 mph /  10.0 km/h 6.2 mph /  10.0 km/h 50 % 0 in /  0.0 mm
11:41 84.9 °F /  29.4 °C 63.7 °F /  17.6 °C 30 in /  1016.8 hPa SW 9.2 mph /  14.8 km/h 9.2 mph /  14.8 km/h 49 % 0 in /  0.0 mm
11:46 85.8 °F /  29.9 °C 64.6 °F /  18.1 °C 30 in /  1016.8 hPa WSW 6.4 mph /  10.3 km/h 6.4 mph /  10.3 km/h 49 % 0 in /  0.0 mm
11:51 86.2 °F /  30.1 °C 64.8 °F /  18.2 °C 30 in /  1016.8 hPa SSW 6.9 mph /  11.1 km/h 6.9 mph /  11.1 km/h 49 % 0 in /  0.0 mm
11:56 86 °F /  30.0 °C 64 °F /  17.8 °C 30 in /  1016.8 hPa SW 8.1 mph /  13.0 km/h 8.1 mph /  13.0 km/h 48 % 0 in /  0.0 mm
12:01 86 °F /  30.0 °C 64 °F /  17.8 °C 30.1 in /  1017.8 hPa West 5.8 mph /  9.3 km/h 5.8 mph /  9.3 km/h 48 % 0 in /  0.0 mm
12:06 86.2 °F /  30.1 °C 63.7 °F /  17.6 °C 30.1 in /  1017.8 hPa WSW 10.2 mph /  16.4 km/h 10.2 mph /  16.4 km/h 47 % 0 in /  0.0 mm
12:11 86 °F /  30.0 °C 63.3 °F /  17.4 °C 30.1 in /  1017.8 hPa SW 8.1 mph /  13.0 km/h 8.1 mph /  13.0 km/h 47 % 0 in /  0.0 mm
12:16 87.1 °F /  30.6 °C 64.4 °F /  18.0 °C 30 in /  1016.8 hPa South 9.2 mph /  14.8 km/h 9.2 mph /  14.8 km/h 47 % 0 in /  0.0 mm
12:21 86.9 °F /  30.5 °C 63.7 °F /  17.6 °C 30 in /  1016.8 hPa West 9.2 mph /  14.8 km/h 9.2 mph /  14.8 km/h 46 % 0 in /  0.0 mm
12:26 86.7 °F /  30.4 °C 63.5 °F /  17.5 °C 30 in /  1016.8 hPa SW 6.9 mph /  11.1 km/h 6.9 mph /  11.1 km/h 46 % 0 in /  0.0 mm
12:31 87.4 °F /  30.8 °C 64 °F /  17.8 °C 30 in /  1016.8 hPa SSW 5.8 mph /  9.3 km/h 5.8 mph /  9.3 km/h 46 % 0 in /  0.0 mm
12:36 86.7 °F /  30.4 °C 62.8 °F /  17.1 °C 30 in /  1016.8 hPa SSW 11.5 mph /  18.5 km/h 11.5 mph /  18.5 km/h 45 % 0 in /  0.0 mm
12:41 88 °F /  31.1 °C 64 °F /  17.8 °C 30 in /  1016.8 hPa SW 5.8 mph /  9.3 km/h 5.8 mph /  9.3 km/h 45 % 0 in /  0.0 mm
12:46 88.5 °F /  31.4 °C 63.9 °F /  17.7 °C 30 in /  1016.8 hPa SW 5.8 mph /  9.3 km/h 5.8 mph /  9.3 km/h 44 % 0 in /  0.0 mm
12:51 89.1 °F /  31.7 °C 63.7 °F /  17.6 °C 30 in /  1016.8 hPa SSW 5.8 mph /  9.3 km/h 5.8 mph /  9.3 km/h 43 % 0 in /  0.0 mm
12:56 88.2 °F /  31.2 °C 62.2 °F /  16.8 °C 30 in /  1016.8 hPa South 9.2 mph /  14.8 km/h 9.2 mph /  14.8 km/h 42 % 0 in /  0.0 mm
13:01 88.2 °F /  31.2 °C 62.8 °F /  17.1 °C 30 in /  1016.8 hPa SW 9.2 mph /  14.8 km/h 9.2 mph /  14.8 km/h 43 % 0 in /  0.0 mm
13:06 90 °F /  32.2 °C 64.6 °F /  18.1 °C 30 in /  1016.8 hPa SW 5.8 mph /  9.3 km/h 5.8 mph /  9.3 km/h 43 % 0 in /  0.0 mm
13:11 89.4 °F /  31.9 °C 63.3 °F /  17.4 °C 30 in /  1016.8 hPa South 8.1 mph /  13.0 km/h 8.1 mph /  13.0 km/h 42 % 0 in /  0.0 mm
13:16 90 °F /  32.2 °C 63.9 °F /  17.7 °C 30 in /  1015.8 hPa SW 5.8 mph /  9.3 km/h 5.8 mph /  9.3 km/h 42 % 0 in /  0.0 mm
13:21 89.8 °F /  32.1 °C 63 °F /  17.2 °C 30 in /  1015.8 hPa WSW 8.1 mph /  13.0 km/h 8.1 mph /  13.0 km/h 41 % 0 in /  0.0 mm
13:26 88.7 °F /  31.5 °C 61.3 °F /  16.3 °C 30 in /  1015.8 hPa SW 6.9 mph /  11.1 km/h 6.9 mph /  11.1 km/h 40 % 0 in /  0.0 mm
13:31 89.6 °F /  32.0 °C 62.1 °F /  16.7 °C 30 in /  1015.8 hPa SSE 6.9 mph /  11.1 km/h 6.9 mph /  11.1 km/h 40 % 0 in /  0.0 mm
13:36 89.6 °F /  32.0 °C 62.1 °F /  16.7 °C 30 in /  1015.8 hPa SW 6.2 mph /  10.0 km/h 6.2 mph /  10.0 km/h 40 % 0 in /  0.0 mm
13:41 88.9 °F /  31.6 °C 61.3 °F /  16.3 °C 30 in /  1015.8 hPa ESE 9.2 mph /  14.8 km/h 9.2 mph /  14.8 km/h 40 % 0 in /  0.0 mm
13:46 89.2 °F /  31.8 °C 61.9 °F /  16.6 °C 30 in /  1015.8 hPa South 4.9 mph /  7.9 km/h 4.9 mph /  7.9 km/h 40 % 0 in /  0.0 mm
13:51 90.3 °F /  32.4 °C 62.8 °F /  17.1 °C 30 in /  1015.8 hPa SSW 8.1 mph /  13.0 km/h 8.1 mph /  13.0 km/h 40 % 0 in /  0.0 mm
13:56 89.4 °F /  31.9 °C 60.4 °F /  15.8 °C 30 in /  1015.8 hPa SSW 12.3 mph /  19.8 km/h 12.3 mph /  19.8 km/h 38 % 0 in /  0.0 mm
14:01 89.4 °F /  31.9 °C 60.4 °F /  15.8 °C 30 in /  1015.8 hPa SSW 10.9 mph /  17.5 km/h 10.9 mph /  17.5 km/h 38 % 0 in /  0.0 mm
14:06 89.6 °F /  32.0 °C 60.6 °F /  15.9 °C 30 in /  1015.8 hPa SW 8.1 mph /  13.0 km/h 8.1 mph /  13.0 km/h 38 % 0 in /  0.0 mm
14:11 90.7 °F /  32.6 °C 61.5 °F /  16.4 °C 30 in /  1015.8 hPa SW 5.8 mph /  9.3 km/h 5.8 mph /  9.3 km/h 38 % 0 in /  0.0 mm
14:16 90.9 °F /  32.7 °C 61.7 °F /  16.5 °C 30 in /  1014.8 hPa SW 5.8 mph /  9.3 km/h 5.8 mph /  9.3 km/h 38 % 0 in /  0.0 mm
14:21 89.4 °F /  31.9 °C 59.7 °F /  15.4 °C 30 in /  1014.8 hPa SW 11.5 mph /  18.5 km/h 11.5 mph /  18.5 km/h 37 % 0 in /  0.0 mm
14:26 90 °F /  32.2 °C 60.3 °F /  15.7 °C 30 in /  1014.8 hPa SW 9.2 mph /  14.8 km/h 9.2 mph /  14.8 km/h 37 % 0 in /  0.0 mm
14:31 89.8 °F /  32.1 °C 60.1 °F /  15.6 °C 30 in /  1014.8 hPa SSE 10.4 mph /  16.7 km/h 10.4 mph /  16.7 km/h 37 % 0 in /  0.0 mm
14:36 90.3 °F /  32.4 °C 60.4 °F /  15.8 °C 30 in /  1014.8 hPa SE 10.4 mph /  16.7 km/h 10.4 mph /  16.7 km/h 37 % 0 in /  0.0 mm
14:41 90.5 °F /  32.5 °C 61.3 °F /  16.3 °C 30 in /  1014.8 hPa SSW 11.5 mph /  18.5 km/h 11.5 mph /  18.5 km/h 38 % 0 in /  0.0 mm
14:46 91 °F /  32.8 °C 61.9 °F /  16.6 °C 30 in /  1014.8 hPa South 7.1 mph /  11.4 km/h 7.1 mph /  11.4 km/h 38 % 0 in /  0.0 mm
14:51 91 °F /  32.8 °C 61.2 °F /  16.2 °C 30 in /  1014.8 hPa SW 5.8 mph /  9.3 km/h 5.8 mph /  9.3 km/h 37 % 0 in /  0.0 mm
14:56 90.7 °F /  32.6 °C 60.8 °F /  16.0 °C 30 in /  1014.8 hPa SSW 8.1 mph /  13.0 km/h 8.1 mph /  13.0 km/h 37 % 0 in /  0.0 mm
15:01 90 °F /  32.2 °C 60.3 °F /  15.7 °C 30 in /  1015.8 hPa SSW 6.9 mph /  11.1 km/h 6.9 mph /  11.1 km/h 37 % 0 in /  0.0 mm
15:06 90.1 °F /  32.3 °C 60.4 °F /  15.8 °C 30 in /  1015.8 hPa SSW 8.1 mph /  13.0 km/h 8.1 mph /  13.0 km/h 37 % 0 in /  0.0 mm
15:11 89.8 °F /  32.1 °C 60.1 °F /  15.6 °C 30 in /  1015.8 hPa SW 6.9 mph /  11.1 km/h 6.9 mph /  11.1 km/h 37 % 0 in /  0.0 mm
15:16 90.1 °F /  32.3 °C 60.4 °F /  15.8 °C 30 in /  1015.8 hPa West 8.1 mph /  13.0 km/h 8.1 mph /  13.0 km/h 37 % 0 in /  0.0 mm
15:21 90.9 °F /  32.7 °C 61 °F /  16.1 °C 30 in /  1015.8 hPa South 11.5 mph /  18.5 km/h 11.5 mph /  18.5 km/h 37 % 0 in /  0.0 mm
15:26 90.3 °F /  32.4 °C 60.4 °F /  15.8 °C 30 in /  1015.8 hPa SSW 8.1 mph /  13.0 km/h 8.1 mph /  13.0 km/h 37 % 0 in /  0.0 mm
15:31 90.5 °F /  32.5 °C 60.6 °F /  15.9 °C 30 in /  1015.8 hPa SW 10.7 mph /  17.2 km/h 10.7 mph /  17.2 km/h 37 % 0 in /  0.0 mm
15:36 90.3 °F /  32.4 °C 59.7 °F /  15.4 °C 30 in /  1015.8 hPa South 12.7 mph /  20.4 km/h 12.7 mph /  20.4 km/h 36 % 0 in /  0.0 mm
15:41 90.7 °F /  32.6 °C 60.1 °F /  15.6 °C 30 in /  1015.8 hPa SSW 13 mph /  20.9 km/h 13 mph /  20.9 km/h 36 % 0 in /  0.0 mm
15:46 90 °F /  32.2 °C 58.6 °F /  14.8 °C 30 in /  1015.8 hPa SW 15 mph /  24.1 km/h 15 mph /  24.1 km/h 35 % 0 in /  0.0 mm
15:51 91 °F /  32.8 °C 59.5 °F /  15.3 °C 30 in /  1015.8 hPa WSW 6.9 mph /  11.1 km/h 6.9 mph /  11.1 km/h 35 % 0 in /  0.0 mm
15:56 90.9 °F /  32.7 °C 60.3 °F /  15.7 °C 30 in /  1015.8 hPa South 5.8 mph /  9.3 km/h 5.8 mph /  9.3 km/h 36 % 0 in /  0.0 mm
16:01 90.9 °F /  32.7 °C 59.4 °F /  15.2 °C 30 in /  1015.8 hPa SSE 9.2 mph /  14.8 km/h 9.2 mph /  14.8 km/h 35 % 0 in /  0.0 mm
16:06 90 °F /  32.2 °C 57.7 °F /  14.3 °C 30 in /  1015.8 hPa SW 10 mph /  16.1 km/h 10 mph /  16.1 km/h 34 % 0 in /  0.0 mm
16:11 89.8 °F /  32.1 °C 58.5 °F /  14.7 °C 30 in /  1015.8 hPa SW 10.4 mph /  16.7 km/h 10.4 mph /  16.7 km/h 35 % 0 in /  0.0 mm
16:16 90.3 °F /  32.4 °C 59 °F /  15.0 °C 30 in /  1015.8 hPa West 9.4 mph /  15.1 km/h 9.4 mph /  15.1 km/h 35 % 0 in /  0.0 mm
16:21 90.5 °F /  32.5 °C 59.9 °F /  15.5 °C 30 in /  1015.8 hPa SW 8.1 mph /  13.0 km/h 8.1 mph /  13.0 km/h 36 % 0 in /  0.0 mm
16:26 90.1 °F /  32.3 °C 58.8 °F /  14.9 °C 30 in /  1015.8 hPa SW 9.2 mph /  14.8 km/h 9.2 mph /  14.8 km/h 35 % 0 in /  0.0 mm
16:31 90 °F /  32.2 °C 57.7 °F /  14.3 °C 30 in /  1014.8 hPa SSW 13.8 mph /  22.2 km/h 13.8 mph /  22.2 km/h 34 % 0 in /  0.0 mm
16:36 90.3 °F /  32.4 °C 59 °F /  15.0 °C 30 in /  1014.8 hPa SSW 5.8 mph /  9.3 km/h 5.8 mph /  9.3 km/h 35 % 0 in /  0.0 mm
16:41 89.8 °F /  32.1 °C 57.7 °F /  14.3 °C 30 in /  1014.8 hPa SW 10.4 mph /  16.7 km/h 10.4 mph /  16.7 km/h 34 % 0 in /  0.0 mm
16:46 89.2 °F /  31.8 °C 57.9 °F /  14.4 °C 30 in /  1014.8 hPa SW 12.7 mph /  20.4 km/h 12.7 mph /  20.4 km/h 35 % 0 in /  0.0 mm
16:51 89.8 °F /  32.1 °C 57.7 °F /  14.3 °C 30 in /  1014.8 hPa SW 7.8 mph /  12.6 km/h 7.8 mph /  12.6 km/h 34 % 0 in /  0.0 mm
16:56 89.2 °F /  31.8 °C 57.9 °F /  14.4 °C 30 in /  1014.8 hPa SSW 10.4 mph /  16.7 km/h 10.4 mph /  16.7 km/h 35 % 0 in /  0.0 mm
17:01 89.2 °F /  31.8 °C 57.9 °F /  14.4 °C 30 in /  1014.8 hPa South 6.9 mph /  11.1 km/h 6.9 mph /  11.1 km/h 35 % 0 in /  0.0 mm
17:11 89.4 °F /  31.9 °C 58.3 °F /  14.6 °C 30 in /  1014.8 hPa SW 6.9 mph /  11.1 km/h 6.9 mph /  11.1 km/h 35 % 0 in /  0.0 mm
17:16 89.1 °F /  31.7 °C 57 °F /  13.9 °C 30 in /  1014.8 hPa WSW 11.5 mph /  18.5 km/h 11.5 mph /  18.5 km/h 34 % 0 in /  0.0 mm
17:21 89.1 °F /  31.7 °C 57.7 °F /  14.3 °C 30 in /  1014.8 hPa West 5.8 mph /  9.3 km/h 5.8 mph /  9.3 km/h 35 % 0 in /  0.0 mm
17:26 89.1 °F /  31.7 °C 57.7 °F /  14.3 °C 30 in /  1014.8 hPa SW 5.8 mph /  9.3 km/h 5.8 mph /  9.3 km/h 35 % 0 in /  0.0 mm
17:28 88.9 °F /  31.6 °C 57.7 °F /  14.3 °C 30 in /  1014.8 hPa SW 9.2 mph /  14.8 km/h 9.2 mph /  14.8 km/h 35 % 0 in /  0.0 mm
17:33 89.1 °F /  31.7 °C 57.7 °F /  14.3 °C 30 in /  1014.8 hPa South 5.8 mph /  9.3 km/h 5.8 mph /  9.3 km/h 35 % 0 in /  0.0 mm
17:38 88.7 °F /  31.5 °C 57.6 °F /  14.2 °C 30 in /  1014.8 hPa SSW 9.2 mph /  14.8 km/h 9.2 mph /  14.8 km/h 35 % 0 in /  0.0 mm
17:43 88.3 °F /  31.3 °C 56.5 °F /  13.6 °C 30 in /  1014.8 hPa SW 12.5 mph /  20.1 km/h 12.5 mph /  20.1 km/h 34 % 0 in /  0.0 mm
17:48 88.7 °F /  31.5 °C 56.7 °F /  13.7 °C 30 in /  1014.8 hPa SW 9.7 mph /  15.6 km/h 9.7 mph /  15.6 km/h 34 % 0 in /  0.0 mm
17:53 88.3 °F /  31.3 °C 57.2 °F /  14.0 °C 30 in /  1014.8 hPa SSW 8.1 mph /  13.0 km/h 8.1 mph /  13.0 km/h 35 % 0 in /  0.0 mm
17:58 88.7 °F /  31.5 °C 57.6 °F /  14.2 °C 30 in /  1014.8 hPa SW 8.1 mph /  13.0 km/h 8.1 mph /  13.0 km/h 35 % 0 in /  0.0 mm
18:03 88 °F /  31.1 °C 56.8 °F /  13.8 °C 30 in /  1014.8 hPa SSW 9.2 mph /  14.8 km/h 9.2 mph /  14.8 km/h 35 % 0 in /  0.0 mm
18:08 88.5 °F /  31.4 °C 57.4 °F /  14.1 °C 30 in /  1014.8 hPa SW 8.1 mph /  13.0 km/h 8.1 mph /  13.0 km/h 35 % 0 in /  0.0 mm
18:13 88.5 °F /  31.4 °C 57.4 °F /  14.1 °C 30 in /  1014.8 hPa SSW 9.4 mph /  15.1 km/h 9.4 mph /  15.1 km/h 35 % 0 in /  0.0 mm
18:18 88 °F /  31.1 °C 56.8 °F /  13.8 °C 30 in /  1014.8 hPa SSW 11.5 mph /  18.5 km/h 11.5 mph /  18.5 km/h 35 % 0 in /  0.0 mm
18:23 87.6 °F /  30.9 °C 57.4 °F /  14.1 °C 30 in /  1014.8 hPa WSW 8.1 mph /  13.0 km/h 8.1 mph /  13.0 km/h 36 % 0 in /  0.0 mm
18:24 87.6 °F /  30.9 °C 57.4 °F /  14.1 °C 30 in /  1014.8 hPa WSW 8.1 mph /  13.0 km/h 8.1 mph /  13.0 km/h 36 % 0 in /  0.0 mm
18:29 87.4 °F /  30.8 °C 57.2 °F /  14.0 °C 30 in /  1014.8 hPa SW 5.8 mph /  9.3 km/h 5.8 mph /  9.3 km/h 36 % 0 in /  0.0 mm
18:34 87.3 °F /  30.7 °C 57 °F /  13.9 °C 30 in /  1014.8 hPa SSW 5.8 mph /  9.3 km/h 5.8 mph /  9.3 km/h 36 % 0 in /  0.0 mm
18:39 87.3 °F /  30.7 °C 57.7 °F /  14.3 °C 30 in /  1014.8 hPa SSW 7.6 mph /  12.2 km/h 7.6 mph /  12.2 km/h 37 % 0 in /  0.0 mm
18:44 86.9 °F /  30.5 °C 57.6 °F /  14.2 °C 30 in /  1014.8 hPa SW 3.5 mph /  5.6 km/h 5.4 mph /  8.7 km/h 37 % 0 in /  0.0 mm
18:49 86.9 °F /  30.5 °C 57.6 °F /  14.2 °C 30 in /  1014.8 hPa SSW 8.1 mph /  13.0 km/h 8.1 mph /  13.0 km/h 37 % 0 in /  0.0 mm
18:54 86.5 °F /  30.3 °C 57.2 °F /  14.0 °C 30 in /  1014.8 hPa SSW 10.4 mph /  16.7 km/h 10.4 mph /  16.7 km/h 37 % 0 in /  0.0 mm
18:59 86.4 °F /  30.2 °C 57 °F /  13.9 °C 30 in /  1014.8 hPa SSW 7.1 mph /  11.4 km/h 7.1 mph /  11.4 km/h 37 % 0 in /  0.0 mm
19:04 86 °F /  30.0 °C 56.7 °F /  13.7 °C 30 in /  1014.8 hPa WSW 10.5 mph /  16.9 km/h 10.5 mph /  16.9 km/h 37 % 0 in /  0.0 mm
19:09 85.3 °F /  29.6 °C 56.1 °F /  13.4 °C 30 in /  1014.8 hPa SW 9.2 mph /  14.8 km/h 9.2 mph /  14.8 km/h 37 % 0 in /  0.0 mm
19:14 85.3 °F /  29.6 °C 56.1 °F /  13.4 °C 30 in /  1014.8 hPa SW 10.4 mph /  16.7 km/h 10.4 mph /  16.7 km/h 37 % 0 in /  0.0 mm
19:19 84.7 °F /  29.3 °C 55.6 °F /  13.1 °C 30 in /  1014.8 hPa SW 10.4 mph /  16.7 km/h 10.4 mph /  16.7 km/h 37 % 0 in /  0.0 mm
19:20 73.9 °F /  23.3 °C 58.6 °F /  14.8 °C 30 in /  1015.8 hPa WSW 2 mph /  3.2 km/h 3 mph /  4.8 km/h 59 % 0 in /  0.0 mm
19:24 84.4 °F /  29.1 °C 55.2 °F /  12.9 °C 30 in /  1014.8 hPa SW 8.1 mph /  13.0 km/h 8.1 mph /  13.0 km/h 37 % 0 in /  0.0 mm
19:29 84.2 °F /  29.0 °C 55 °F /  12.8 °C 30 in /  1014.8 hPa WSW 7.1 mph /  11.4 km/h 7.1 mph /  11.4 km/h 37 % 0 in /  0.0 mm
19:30 73.8 °F /  23.2 °C 59 °F /  15.0 °C 30 in /  1015.8 hPa SW 3 mph /  4.8 km/h 4 mph /  6.4 km/h 60 % 0 in /  0.0 mm
19:34 83.8 °F /  28.8 °C 56.1 °F /  13.4 °C 30 in /  1014.8 hPa West 11.5 mph /  18.5 km/h 11.5 mph /  18.5 km/h 39 % 0 in /  0.0 mm
19:39 83.7 °F /  28.7 °C 56.1 °F /  13.4 °C 30 in /  1014.8 hPa SW 8.1 mph /  13.0 km/h 8.1 mph /  13.0 km/h 39 % 0 in /  0.0 mm
19:40 73.6 °F /  23.1 °C 59.4 °F /  15.2 °C 30 in /  1015.8 hPa SW 3 mph /  4.8 km/h 3 mph /  4.8 km/h 61 % 0 in /  0.0 mm
19:44 83.5 °F /  28.6 °C 55.9 °F /  13.3 °C 30 in /  1014.8 hPa SSW 5.8 mph /  9.3 km/h 5.8 mph /  9.3 km/h 39 % 0 in /  0.0 mm
19:49 83.3 °F /  28.5 °C 55.8 °F /  13.2 °C 30 in /  1014.8 hPa SW 10.4 mph /  16.7 km/h 10.4 mph /  16.7 km/h 39 % 0 in /  0.0 mm
19:50 73.4 °F /  23.0 °C 59.2 °F /  15.1 °C 30 in /  1015.8 hPa SW 3 mph /  4.8 km/h 3 mph /  4.8 km/h 61 % 0 in /  0.0 mm
19:54 83.3 °F /  28.5 °C 55.8 °F /  13.2 °C 30 in /  1014.8 hPa SSW 4.6 mph /  7.4 km/h 4.6 mph /  7.4 km/h 39 % 0 in /  0.0 mm
19:59 83.1 °F /  28.4 °C 55.6 °F /  13.1 °C 30 in /  1014.8 hPa WSW 5.8 mph /  9.3 km/h 6.2 mph /  10.0 km/h 39 % 0 in /  0.0 mm
20:00 73.2 °F /  22.9 °C 59.4 °F /  15.2 °C 30 in /  1015.8 hPa WSW 2 mph /  3.2 km/h 3 mph /  4.8 km/h 62 % 0 in /  0.0 mm
20:04 82.8 °F /  28.2 °C 55.2 °F /  12.9 °C 30 in /  1014.8 hPa South 12.7 mph /  20.4 km/h 12.7 mph /  20.4 km/h 39 % 0 in /  0.0 mm
20:09 82.6 °F /  28.1 °C 55 °F /  12.8 °C 30 in /  1014.8 hPa WSW 8.1 mph /  13.0 km/h 8.1 mph /  13.0 km/h 39 % 0 in /  0.0 mm
20:10 73 °F /  22.8 °C 59.7 °F /  15.4 °C 30 in /  1015.8 hPa WSW 2 mph /  3.2 km/h 3 mph /  4.8 km/h 63 % 0 in /  0.0 mm
20:14 82.2 °F /  27.9 °C 54.9 °F /  12.7 °C 30 in /  1014.8 hPa SSE 8.5 mph /  13.7 km/h 8.5 mph /  13.7 km/h 39 % 0 in /  0.0 mm
20:19 82 °F /  27.8 °C 55.2 °F /  12.9 °C 30 in /  1014.8 hPa SW 6.9 mph /  11.1 km/h 6.9 mph /  11.1 km/h 40 % 0 in /  0.0 mm
20:20 72.9 °F /  22.7 °C 59.5 °F /  15.3 °C 30 in /  1015.8 hPa WSW 2 mph /  3.2 km/h 2 mph /  3.2 km/h 63 % 0 in /  0.0 mm
20:24 82 °F /  27.8 °C 55.2 °F /  12.9 °C 30 in /  1014.8 hPa WSW 6.9 mph /  11.1 km/h 6.9 mph /  11.1 km/h 40 % 0 in /  0.0 mm
20:29 81.9 °F /  27.7 °C 55.2 °F /  12.9 °C 30 in /  1014.8 hPa WSW 3.5 mph /  5.6 km/h 3.6 mph /  5.8 km/h 40 % 0 in /  0.0 mm
20:30 72.7 °F /  22.6 °C 59.7 °F /  15.4 °C 30 in /  1015.8 hPa WSW 2 mph /  3.2 km/h 2 mph /  3.2 km/h 64 % 0 in /  0.0 mm
20:34 81.7 °F /  27.6 °C 55 °F /  12.8 °C 30 in /  1014.8 hPa SW 4.6 mph /  7.4 km/h 4.6 mph /  7.4 km/h 40 % 0 in /  0.0 mm
20:39 81.5 °F /  27.5 °C 54.9 °F /  12.7 °C 30 in /  1014.8 hPa SW 5.8 mph /  9.3 km/h 5.8 mph /  9.3 km/h 40 % 0 in /  0.0 mm
20:44 81.3 °F /  27.4 °C 54.7 °F /  12.6 °C 30 in /  1014.8 hPa WSW 3.1 mph /  5.0 km/h 3.1 mph /  5.0 km/h 40 % 0 in /  0.0 mm
20:45 72.5 °F /  22.5 °C 60.1 °F /  15.6 °C 30 in /  1015.8 hPa SW 2 mph /  3.2 km/h 4 mph /  6.4 km/h 65 % 0 in /  0.0 mm
20:49 81.1 °F /  27.3 °C 54.5 °F /  12.5 °C 30 in /  1014.8 hPa WSW 4.7 mph /  7.6 km/h 4.7 mph /  7.6 km/h 40 % 0 in /  0.0 mm
20:54 80.8 °F /  27.1 °C 54.1 °F /  12.3 °C 30 in /  1014.8 hPa SW 4.6 mph /  7.4 km/h 4.6 mph /  7.4 km/h 40 % 0 in /  0.0 mm
20:55 72.3 °F /  22.4 °C 59.9 °F /  15.5 °C 30 in /  1014.8 hPa WSW 2 mph /  3.2 km/h 3 mph /  4.8 km/h 65 % 0 in /  0.0 mm
20:59 80.6 °F /  27.0 °C 54.7 °F /  12.6 °C 30 in /  1014.8 hPa West 5.8 mph /  9.3 km/h 5.8 mph /  9.3 km/h 41 % 0 in /  0.0 mm
21:04 80.4 °F /  26.9 °C 55.2 °F /  12.9 °C 30 in /  1014.8 hPa SW 5.8 mph /  9.3 km/h 5.8 mph /  9.3 km/h 42 % 0 in /  0.0 mm
21:05 72.3 °F /  22.4 °C 60.3 °F /  15.7 °C 30 in /  1014.8 hPa WSW 1 mph /  1.6 km/h 3 mph /  4.8 km/h 66 % 0 in /  0.0 mm
21:09 80.1 °F /  26.7 °C 54.9 °F /  12.7 °C 30 in /  1014.8 hPa SW 4.6 mph /  7.4 km/h 4.6 mph /  7.4 km/h 42 % 0 in /  0.0 mm
21:14 79.9 °F /  26.6 °C 55.4 °F /  13.0 °C 30 in /  1014.8 hPa SW 4.6 mph /  7.4 km/h 4.6 mph /  7.4 km/h 43 % 0 in /  0.0 mm
21:15 72.1 °F /  22.3 °C 60.3 °F /  15.7 °C 30 in /  1015.8 hPa WSW 2 mph /  3.2 km/h 4 mph /  6.4 km/h 66 % 0 in /  0.0 mm
21:19 79.7 °F /  26.5 °C 55.2 °F /  12.9 °C 30 in /  1014.8 hPa South 8.1 mph /  13.0 km/h 8.1 mph /  13.0 km/h 43 % 0 in /  0.0 mm
21:24 79.3 °F /  26.3 °C 54.9 °F /  12.7 °C 30 in /  1014.8 hPa SW 5.8 mph /  9.3 km/h 5.8 mph /  9.3 km/h 43 % 0 in /  0.0 mm
21:25 72.1 °F /  22.3 °C 60.6 °F /  15.9 °C 30 in /  1015.8 hPa WSW 2 mph /  3.2 km/h 3 mph /  4.8 km/h 67 % 0 in /  0.0 mm
21:29 79.2 °F /  26.2 °C 55.4 °F /  13.0 °C 29.9 in /  1013.8 hPa SW 5.8 mph /  9.3 km/h 5.8 mph /  9.3 km/h 44 % 0 in /  0.0 mm
21:34 79 °F /  26.1 °C 55.2 °F /  12.9 °C 29.9 in /  1013.8 hPa SW 3.5 mph /  5.6 km/h 3.5 mph /  5.6 km/h 44 % 0 in /  0.0 mm
21:35 72 °F /  22.2 °C 60.4 °F /  15.8 °C 30 in /  1015.8 hPa WSW 1 mph /  1.6 km/h 3 mph /  4.8 km/h 67 % 0 in /  0.0 mm
21:39 78.8 °F /  26.0 °C 55.8 °F /  13.2 °C 29.9 in /  1013.8 hPa WSW 6.9 mph /  11.1 km/h 6.9 mph /  11.1 km/h 45 % 0 in /  0.0 mm
21:44 78.6 °F /  25.9 °C 55.6 °F /  13.1 °C 30 in /  1014.8 hPa SSW 4.7 mph /  7.6 km/h 4.7 mph /  7.6 km/h 45 % 0 in /  0.0 mm
21:45 71.8 °F /  22.1 °C 60.3 °F /  15.7 °C 30 in /  1015.8 hPa West 2 mph /  3.2 km/h 3 mph /  4.8 km/h 67 % 0 in /  0.0 mm
21:49 78.4 °F /  25.8 °C 55.2 °F /  12.9 °C 30 in /  1014.8 hPa SSW 2.3 mph /  3.7 km/h 2.3 mph /  3.7 km/h 45 % 0 in /  0.0 mm
21:54 78.3 °F /  25.7 °C 55.8 °F /  13.2 °C 30 in /  1014.8 hPa SW 4.6 mph /  7.4 km/h 4.6 mph /  7.4 km/h 46 % 0 in /  0.0 mm
21:59 78.1 °F /  25.6 °C 55.6 °F /  13.1 °C 30 in /  1014.8 hPa SW 4.6 mph /  7.4 km/h 4.6 mph /  7.4 km/h 46 % 0 in /  0.0 mm
22:04 77.9 °F /  25.5 °C 55.6 °F /  13.1 °C 30 in /  1014.8 hPa SW 3.5 mph /  5.6 km/h 3.5 mph /  5.6 km/h 46 % 0 in /  0.0 mm
22:05 71.2 °F /  21.8 °C 60.4 °F /  15.8 °C 30 in /  1014.8 hPa WSW 2 mph /  3.2 km/h 3 mph /  4.8 km/h 69 % 0 in /  0.0 mm
22:09 77.7 °F /  25.4 °C 55.9 °F /  13.3 °C 30 in /  1014.8 hPa SW 4.6 mph /  7.4 km/h 4.6 mph /  7.4 km/h 47 % 0 in /  0.0 mm
22:10 71.1 °F /  21.7 °C 60.4 °F /  15.8 °C 30 in /  1014.8 hPa WSW 2 mph /  3.2 km/h 3 mph /  4.8 km/h 69 % 0 in /  0.0 mm
22:14 77.5 °F /  25.3 °C 55.8 °F /  13.2 °C 30 in /  1014.8 hPa SW 4.6 mph /  7.4 km/h 4.6 mph /  7.4 km/h 47 % 0 in /  0.0 mm
22:15 71.1 °F /  21.7 °C 60.4 °F /  15.8 °C 30 in /  1014.8 hPa SW 2 mph /  3.2 km/h 3 mph /  4.8 km/h 69 % 0 in /  0.0 mm
22:19 77.4 °F /  25.2 °C 56.1 °F /  13.4 °C 30 in /  1014.8 hPa WSW 3.6 mph /  5.8 km/h 3.6 mph /  5.8 km/h 48 % 0 in /  0.0 mm
22:24 77.2 °F /  25.1 °C 55.9 °F /  13.3 °C 30 in /  1014.8 hPa SSW 8.1 mph /  13.0 km/h 8.1 mph /  13.0 km/h 48 % 0 in /  0.0 mm
22:25 70.9 °F /  21.6 °C 59.7 °F /  15.4 °C 30 in /  1014.8 hPa SW 2 mph /  3.2 km/h 2 mph /  3.2 km/h 68 % 0 in /  0.0 mm
22:29 77 °F /  25.0 °C 56.5 °F /  13.6 °C 30 in /  1014.8 hPa WSW 3.5 mph /  5.6 km/h 3.5 mph /  5.6 km/h 49 % 0 in /  0.0 mm
22:34 76.8 °F /  24.9 °C 56.8 °F /  13.8 °C 30 in /  1014.8 hPa West 6.9 mph /  11.1 km/h 6.9 mph /  11.1 km/h 50 % 0 in /  0.0 mm
22:35 70.7 °F /  21.5 °C 59.5 °F /  15.3 °C 30 in /  1014.8 hPa SW 2 mph /  3.2 km/h 3 mph /  4.8 km/h 68 % 0 in /  0.0 mm
22:39 76.8 °F /  24.9 °C 57.4 °F /  14.1 °C 30 in /  1014.8 hPa West 3.5 mph /  5.6 km/h 3.5 mph /  5.6 km/h 51 % 0 in /  0.0 mm
22:44 76.6 °F /  24.8 °C 57.2 °F /  14.0 °C 30 in /  1014.8 hPa WSW 2.4 mph /  3.9 km/h 2.4 mph /  3.9 km/h 51 % 0 in /  0.0 mm
22:45 70.7 °F /  21.5 °C 59.2 °F /  15.1 °C 30 in /  1014.8 hPa WSW 1 mph /  1.6 km/h 3 mph /  4.8 km/h 67 % 0 in /  0.0 mm
22:49 76.6 °F /  24.8 °C 57.2 °F /  14.0 °C 30 in /  1014.8 hPa SSW 2.3 mph /  3.7 km/h 2.3 mph /  3.7 km/h 51 % 0 in /  0.0 mm
22:54 76.5 °F /  24.7 °C 57.6 °F /  14.2 °C 30 in /  1014.8 hPa West 2.3 mph /  3.7 km/h 2.3 mph /  3.7 km/h 52 % 0 in /  0.0 mm
22:55 70.9 °F /  21.6 °C 59 °F /  15.0 °C 29.9 in /  1013.8 hPa WSW 2 mph /  3.2 km/h 2 mph /  3.2 km/h 66 % 0 in /  0.0 mm
22:59 76.3 °F /  24.6 °C 57.4 °F /  14.1 °C 30 in /  1015.8 hPa SW 3.5 mph /  5.6 km/h 3.5 mph /  5.6 km/h 52 % 0 in /  0.0 mm
23:04 76.1 °F /  24.5 °C 57.2 °F /  14.0 °C 30 in /  1015.8 hPa SSW 3.5 mph /  5.6 km/h 3.5 mph /  5.6 km/h 52 % 0 in /  0.0 mm
23:05 70.9 °F /  21.6 °C 58.5 °F /  14.7 °C 29.9 in /  1013.8 hPa WSW 2 mph /  3.2 km/h 4 mph /  6.4 km/h 65 % 0 in /  0.0 mm
23:09 75.9 °F /  24.4 °C 57.6 °F /  14.2 °C 30 in /  1015.8 hPa WSW 5.8 mph /  9.3 km/h 5.8 mph /  9.3 km/h 53 % 0 in /  0.0 mm
23:14 75.7 °F /  24.3 °C 57.4 °F /  14.1 °C 30 in /  1015.8 hPa SW 4 mph /  6.4 km/h 4 mph /  6.4 km/h 53 % 0 in /  0.0 mm
23:15 70.9 °F /  21.6 °C 58.1 °F /  14.5 °C 29.9 in /  1013.8 hPa WSW 2 mph /  3.2 km/h 3 mph /  4.8 km/h 64 % 0 in /  0.0 mm
23:19 75.7 °F /  24.3 °C 57.9 °F /  14.4 °C 30 in /  1015.8 hPa SW 3.6 mph /  5.8 km/h 3.6 mph /  5.8 km/h 54 % 0 in /  0.0 mm
23:24 75.4 °F /  24.1 °C 57.6 °F /  14.2 °C 30 in /  1015.8 hPa SW 4.6 mph /  7.4 km/h 4.6 mph /  7.4 km/h 54 % 0 in /  0.0 mm
23:25 71.1 °F /  21.7 °C 57.7 °F /  14.3 °C 29.9 in /  1013.8 hPa WSW 3 mph /  4.8 km/h 3 mph /  4.8 km/h 63 % 0 in /  0.0 mm
23:29 75.4 °F /  24.1 °C 58.1 °F /  14.5 °C 30 in /  1015.8 hPa West 3.5 mph /  5.6 km/h 3.5 mph /  5.6 km/h 55 % 0 in /  0.0 mm
23:34 75.2 °F /  24.0 °C 57.9 °F /  14.4 °C 30 in /  1015.8 hPa SW 3.5 mph /  5.6 km/h 3.5 mph /  5.6 km/h 55 % 0 in /  0.0 mm
23:35 71.2 °F /  21.8 °C 57.6 °F /  14.2 °C 29.9 in /  1013.8 hPa WSW 2 mph /  3.2 km/h 3 mph /  4.8 km/h 62 % 0 in /  0.0 mm
23:39 75 °F /  23.9 °C 58.3 °F /  14.6 °C 30 in /  1015.8 hPa SW 1.6 mph /  2.6 km/h 2.4 mph /  3.9 km/h 56 % 0 in /  0.0 mm
23:44 74.8 °F /  23.8 °C 58.6 °F /  14.8 °C 30 in /  1014.8 hPa WSW 2.4 mph /  3.9 km/h 2.4 mph /  3.9 km/h 57 % 0 in /  0.0 mm
23:45 71.4 °F /  21.9 °C 57.4 °F /  14.1 °C 29.9 in /  1013.8 hPa West 3 mph /  4.8 km/h 3 mph /  4.8 km/h 61 % 0 in /  0.0 mm
23:49 74.8 °F /  23.8 °C 58.6 °F /  14.8 °C 30 in /  1014.8 hPa WSW 3.5 mph /  5.6 km/h 3.5 mph /  5.6 km/h 57 % 0 in /  0.0 mm
23:54 74.7 °F /  23.7 °C 58.8 °F /  14.9 °C 30 in /  1014.8 hPa SW 3.5 mph /  5.6 km/h 3.5 mph /  5.6 km/h 58 % 0 in /  0.0 mm
23:55 71.6 °F /  22.0 °C 57 °F /  13.9 °C 29.9 in /  1013.8 hPa West 2 mph /  3.2 km/h 4 mph /  6.4 km/h 60 % 0 in /  0.0 mm
23:59 74.5 °F /  23.6 °C 58.6 °F /  14.8 °C 30 in /  1015.8 hPa WSW 4.6 mph /  7.4 km/h 4.6 mph /  7.4 km/h 58 % 0 in /  0.0 mm
Meteo Sesrovires
Elogis d' Weather Underground - 3.75 mb

Guio original per  Jim McMurry - jmcmurry@mwt.net Adaptat per a la plantilla per  Wim van der Kuil - Leuven-Template.eu

Trobareu la nostra informacio del temps tambe a:

Weather Underground

AWEKAS